createdAt,value
2023-03-04T00:01:57.967Z,62
2023-03-04T00:03:28.548Z,62
2023-03-04T00:04:58.826Z,62
2023-03-04T00:06:29.150Z,62
2023-03-04T00:07:59.496Z,62
2023-03-04T00:09:30.083Z,62
2023-03-04T00:11:00.485Z,62
2023-03-04T00:12:30.861Z,62
2023-03-04T00:14:01.307Z,62
2023-03-04T00:15:32.089Z,62
2023-03-04T00:17:02.405Z,62
2023-03-04T00:18:32.762Z,62
2023-03-04T00:20:03.206Z,62
2023-03-04T00:21:33.568Z,62
2023-03-04T00:23:04.002Z,62
2023-03-04T00:24:34.412Z,62
2023-03-04T00:26:04.763Z,62
2023-03-04T00:27:35.301Z,62
2023-03-04T00:29:05.547Z,62
2023-03-04T00:30:35.975Z,62
2023-03-04T00:32:06.439Z,62
2023-03-04T00:33:36.761Z,62
2023-03-04T00:35:07.238Z,62
2023-03-04T00:36:37.559Z,62
2023-03-04T00:38:08.023Z,62
2023-03-04T00:39:38.447Z,62
2023-03-04T00:41:41.008Z,62
2023-03-04T00:43:11.419Z,62
2023-03-04T00:44:41.866Z,62
2023-03-04T00:46:44.329Z,62
2023-03-04T00:48:14.709Z,62
2023-03-04T00:49:45.129Z,62
2023-03-04T00:51:15.632Z,62
2023-03-04T00:52:45.948Z,62
2023-03-04T00:54:16.470Z,62
2023-03-04T00:55:46.823Z,62
2023-03-04T00:57:17.224Z,62
2023-03-04T00:58:47.702Z,62
2023-03-04T01:00:18.053Z,62
2023-03-04T01:01:48.692Z,62
2023-03-04T01:03:19.129Z,62
2023-03-04T01:04:49.503Z,62
2023-03-04T01:06:19.886Z,62
2023-03-04T01:08:22.308Z,62
2023-03-04T01:09:52.714Z,62
2023-03-04T01:11:23.197Z,62
2023-03-04T01:13:25.620Z,62
2023-03-04T01:14:56.056Z,62
2023-03-04T01:16:26.421Z,62
2023-03-04T01:17:56.787Z,62
2023-03-04T01:19:27.109Z,62
2023-03-04T01:20:57.515Z,62
2023-03-04T01:22:28.187Z,62
2023-03-04T01:24:30.900Z,62
2023-03-04T01:26:01.240Z,62
2023-03-04T01:27:31.700Z,62
2023-03-04T01:29:33.991Z,62
2023-03-04T01:31:36.281Z,62
2023-03-04T01:33:06.571Z,62
2023-03-04T01:34:37.014Z,62
2023-03-04T01:36:07.427Z,62
2023-03-04T01:37:37.824Z,62
2023-03-04T01:39:08.256Z,62
2023-03-04T01:40:38.823Z,62
2023-03-04T01:42:09.500Z,62
2023-03-04T01:43:39.949Z,62
2023-03-04T01:45:10.454Z,62
2023-03-04T01:46:41.001Z,62
2023-03-04T01:48:11.416Z,62
2023-03-04T01:49:41.913Z,62
2023-03-04T01:51:12.432Z,62
2023-03-04T01:54:50.632Z,62
2023-03-04T01:56:21.069Z,62
2023-03-04T01:57:51.544Z,62
2023-03-04T01:59:22.042Z,62
2023-03-04T02:00:52.373Z,62
2023-03-04T02:02:22.845Z,62
2023-03-04T02:03:53.211Z,62
2023-03-04T02:05:23.610Z,62
2023-03-04T02:06:54.363Z,62
2023-03-04T02:08:24.746Z,62
2023-03-04T02:09:55.205Z,62
2023-03-04T02:11:25.653Z,62
2023-03-04T02:12:56.443Z,62
2023-03-04T02:14:26.870Z,62
2023-03-04T02:15:57.355Z,62
2023-03-04T02:17:28.008Z,62
2023-03-04T02:18:58.427Z,62
2023-03-04T02:20:28.841Z,62
2023-03-04T02:21:59.297Z,62
2023-03-04T02:23:29.789Z,62
2023-03-04T02:25:00.246Z,62
2023-03-04T02:26:30.636Z,62
2023-03-04T02:28:01.060Z,62
2023-03-04T02:29:31.443Z,62
2023-03-04T02:31:01.887Z,62
2023-03-04T02:32:32.423Z,62
2023-03-04T02:34:02.775Z,62
2023-03-04T02:36:05.371Z,62
2023-03-04T02:37:35.843Z,62
2023-03-04T02:39:06.299Z,62
2023-03-04T02:41:08.804Z,62
2023-03-04T02:42:39.272Z,62
2023-03-04T02:44:09.743Z,62
2023-03-04T02:45:40.251Z,62
2023-03-04T02:47:10.811Z,62
2023-03-04T02:48:41.130Z,62
2023-03-04T02:50:11.645Z,62
2023-03-04T02:51:42.152Z,62
2023-03-04T02:53:12.678Z,62
2023-03-04T02:54:43.117Z,62
2023-03-04T02:56:13.576Z,62
2023-03-04T02:58:15.961Z,62
2023-03-04T02:59:46.420Z,62
2023-03-04T03:01:16.907Z,62
2023-03-04T03:02:47.525Z,62
2023-03-04T03:04:17.974Z,62
2023-03-04T03:05:48.388Z,62
2023-03-04T03:07:18.867Z,62
2023-03-04T03:08:49.354Z,62
2023-03-04T03:10:19.960Z,62
2023-03-04T03:11:50.330Z,62
2023-03-04T03:13:52.800Z,62
2023-03-04T03:15:55.319Z,62
2023-03-04T03:17:57.826Z,62
2023-03-04T03:20:00.343Z,62
2023-03-04T03:22:02.807Z,62
2023-03-04T03:23:33.272Z,62
2023-03-04T03:25:03.772Z,62
2023-03-04T03:26:34.256Z,62
2023-03-04T03:28:04.802Z,62
2023-03-04T03:29:35.314Z,62
2023-03-04T03:31:05.748Z,62
2023-03-04T03:32:36.293Z,62
2023-03-04T03:34:06.607Z,62
2023-03-04T03:35:37.152Z,62
2023-03-04T03:37:39.525Z,62
2023-03-04T03:39:41.994Z,62
2023-03-04T03:41:12.493Z,62
2023-03-04T03:42:43.068Z,62
2023-03-04T03:44:13.479Z,62
2023-03-04T03:45:43.915Z,62
2023-03-04T03:47:14.300Z,62
2023-03-04T03:48:44.926Z,62
2023-03-04T03:50:15.166Z,62
2023-03-04T03:52:18.236Z,62
2023-03-04T03:53:48.772Z,62
2023-03-04T03:55:19.290Z,62
2023-03-04T03:57:21.749Z,62
2023-03-04T03:58:52.152Z,62
2023-03-04T04:00:57.123Z,62
2023-03-04T04:02:25.117Z,62
2023-03-04T04:03:55.348Z,62
2023-03-04T04:05:25.801Z,62
2023-03-04T04:06:56.218Z,62
2023-03-04T04:08:26.712Z,62
2023-03-04T04:09:57.159Z,62
2023-03-04T04:11:59.605Z,62
2023-03-04T04:13:30.059Z,62
2023-03-04T04:15:00.543Z,62
2023-03-04T04:16:31.098Z,62
2023-03-04T04:18:01.528Z,62
2023-03-04T04:19:32.047Z,62
2023-03-04T04:21:02.526Z,62
2023-03-04T04:22:33.001Z,62
2023-03-04T04:24:03.470Z,62
2023-03-04T04:25:33.821Z,62
2023-03-04T04:27:36.274Z,62
2023-03-04T04:29:06.784Z,62
2023-03-04T04:31:09.384Z,62
2023-03-04T04:32:39.712Z,62
2023-03-04T04:34:10.163Z,62
2023-03-04T04:35:40.591Z,62
2023-03-04T04:37:11.008Z,62
2023-03-04T04:38:41.385Z,62
2023-03-04T04:40:11.777Z,62
2023-03-04T04:41:42.232Z,62
2023-03-04T04:43:12.631Z,62
2023-03-04T04:44:43.183Z,62
2023-03-04T04:46:45.683Z,62
2023-03-04T04:48:16.148Z,62
2023-03-04T04:49:46.676Z,62
2023-03-04T04:51:17.048Z,62
2023-03-04T04:52:47.579Z,62
2023-03-04T04:54:17.984Z,62
2023-03-04T04:55:48.480Z,62
2023-03-04T04:57:50.945Z,62
2023-03-04T04:59:21.387Z,62
2023-03-04T05:00:51.916Z,62
2023-03-04T05:02:22.376Z,62
2023-03-04T05:04:24.928Z,62
2023-03-04T05:05:55.372Z,62
2023-03-04T05:07:57.812Z,62
2023-03-04T05:09:28.248Z,62
2023-03-04T05:11:30.804Z,62
2023-03-04T05:13:01.208Z,62
2023-03-04T05:14:31.578Z,62
2023-03-04T05:16:34.079Z,62
2023-03-04T05:18:04.572Z,62
2023-03-04T05:19:35.018Z,62
2023-03-04T05:21:05.431Z,62
2023-03-04T05:23:07.903Z,62
2023-03-04T05:24:38.376Z,62
2023-03-04T05:26:40.910Z,62
2023-03-04T05:28:43.315Z,62
2023-03-04T05:30:13.788Z,62
2023-03-04T05:31:44.335Z,62
2023-03-04T05:33:14.659Z,62
2023-03-04T05:34:45.096Z,62
2023-03-04T05:36:15.582Z,62
2023-03-04T05:37:45.953Z,62
2023-03-04T05:39:48.333Z,62
2023-03-04T05:41:18.852Z,62
2023-03-04T05:42:49.312Z,62
2023-03-04T05:44:51.961Z,62
2023-03-04T05:46:22.420Z,62
2023-03-04T05:47:52.761Z,62
2023-03-04T05:49:23.217Z,62
2023-03-04T05:50:53.736Z,62
2023-03-04T05:52:24.121Z,62
2023-03-04T05:54:26.598Z,62
2023-03-04T05:56:29.223Z,62
2023-03-04T05:57:59.622Z,62
2023-03-04T05:59:30.011Z,62
2023-03-04T06:01:00.635Z,62
2023-03-04T06:02:31.200Z,62
2023-03-04T06:04:01.681Z,62
2023-03-04T06:05:32.195Z,62
2023-03-04T06:07:02.516Z,62
2023-03-04T06:08:32.964Z,62
2023-03-04T06:10:35.353Z,62
2023-03-04T06:12:05.859Z,62
2023-03-04T06:14:08.379Z,62
2023-03-04T06:16:10.879Z,62
2023-03-04T06:17:42.189Z,62
2023-03-04T06:19:11.647Z,62
2023-03-04T06:20:42.080Z,62
2023-03-04T06:22:12.574Z,62
2023-03-04T06:23:43.164Z,62
2023-03-04T06:25:13.641Z,62
2023-03-04T06:26:44.079Z,62
2023-03-04T06:28:14.556Z,62
2023-03-04T06:29:45.034Z,62
2023-03-04T06:31:15.450Z,62
2023-03-04T06:32:45.962Z,62
2023-03-04T06:34:16.328Z,62
2023-03-04T06:35:46.785Z,62
2023-03-04T06:37:17.256Z,62
2023-03-04T06:39:19.767Z,62
2023-03-04T06:40:50.305Z,62
2023-03-04T06:42:20.875Z,62
2023-03-04T06:43:51.327Z,62
2023-03-04T06:45:21.848Z,62
2023-03-04T06:46:52.399Z,62
2023-03-04T06:48:22.764Z,62
2023-03-04T06:49:53.171Z,62
2023-03-04T06:51:55.676Z,62
2023-03-04T06:53:26.229Z,62
2023-03-04T06:54:56.615Z,62
2023-03-04T06:56:27.122Z,62
2023-03-04T06:57:57.446Z,62
2023-03-04T06:59:59.929Z,62
2023-03-04T07:01:30.433Z,62
2023-03-04T07:03:00.898Z,62
2023-03-04T07:04:31.279Z,62
2023-03-04T07:06:01.770Z,62
2023-03-04T07:07:32.263Z,62
2023-03-04T07:09:02.704Z,62
2023-03-04T07:10:33.172Z,62
2023-03-04T07:12:35.635Z,62
2023-03-04T07:14:38.122Z,62
2023-03-04T07:16:40.654Z,62
2023-03-04T07:18:11.082Z,62
2023-03-04T07:19:41.513Z,62
2023-03-04T07:21:11.890Z,62
2023-03-04T07:22:42.270Z,62
2023-03-04T07:24:12.765Z,62
2023-03-04T07:25:43.206Z,62
2023-03-04T07:27:13.609Z,62
2023-03-04T07:28:44.141Z,62
2023-03-04T07:30:14.609Z,62
2023-03-04T07:31:45.168Z,62
2023-03-04T07:33:15.549Z,62
2023-03-04T07:34:46.001Z,62
2023-03-04T07:36:16.428Z,62
2023-03-04T07:37:46.876Z,62
2023-03-04T07:39:17.352Z,62
2023-03-04T07:40:47.791Z,62
2023-03-04T07:42:18.132Z,62
2023-03-04T07:43:48.568Z,62
2023-03-04T07:45:19.066Z,62
2023-03-04T07:46:49.722Z,62
2023-03-04T07:48:52.226Z,62
2023-03-04T07:50:22.696Z,62
2023-03-04T07:51:53.100Z,62
2023-03-04T07:53:23.507Z,62
2023-03-04T07:54:54.059Z,62
2023-03-04T07:56:24.420Z,62
2023-03-04T07:57:54.888Z,62
2023-03-04T07:59:25.361Z,62
2023-03-04T08:00:55.868Z,62
2023-03-04T08:02:26.289Z,62
2023-03-04T08:04:28.734Z,62
2023-03-04T08:05:59.020Z,62
2023-03-04T08:08:01.520Z,62
2023-03-04T08:09:31.967Z,62
2023-03-04T08:11:02.488Z,62
2023-03-04T08:12:32.859Z,62
2023-03-04T08:14:03.215Z,62
2023-03-04T08:15:33.746Z,62
2023-03-04T08:17:04.109Z,62
2023-03-04T08:18:34.582Z,62
2023-03-04T08:20:37.012Z,62
2023-03-04T08:22:07.468Z,62
2023-03-04T08:23:37.992Z,62
2023-03-04T08:25:40.451Z,62
2023-03-04T08:27:10.838Z,62
2023-03-04T08:29:13.214Z,62
2023-03-04T08:31:15.805Z,63
2023-03-04T08:32:46.317Z,62
2023-03-04T08:34:16.571Z,62
2023-03-04T08:35:46.999Z,63
2023-03-04T08:37:49.528Z,62
2023-03-04T08:39:20.073Z,62
2023-03-04T08:40:50.541Z,61
2023-03-04T08:42:21.117Z,61
2023-03-04T08:43:51.511Z,61
2023-03-04T08:45:54.096Z,61
2023-03-04T08:47:24.435Z,61
2023-03-04T08:48:54.896Z,61
2023-03-04T08:50:57.690Z,60
2023-03-04T08:52:28.105Z,60
2023-03-04T08:53:58.468Z,60
2023-03-04T08:55:28.906Z,60
2023-03-04T08:56:59.229Z,59
2023-03-04T08:59:01.678Z,58
2023-03-04T09:00:32.118Z,58
2023-03-04T09:02:34.557Z,58
2023-03-04T09:04:05.065Z,58
2023-03-04T09:05:35.467Z,58
2023-03-04T09:07:06.009Z,57
2023-03-04T09:08:36.513Z,56
2023-03-04T09:10:39.024Z,57
2023-03-04T09:12:09.443Z,56
2023-03-04T09:13:39.923Z,56
2023-03-04T09:15:13.978Z,57
2023-03-04T09:16:41.008Z,57
2023-03-04T09:18:11.445Z,56
2023-03-04T09:19:41.888Z,56
2023-03-04T09:21:12.384Z,56
2023-03-04T09:22:42.834Z,56
2023-03-04T09:24:13.210Z,56
2023-03-04T09:25:43.514Z,56
2023-03-04T09:27:13.926Z,55
2023-03-04T09:28:44.368Z,55
2023-03-04T09:30:14.698Z,55
2023-03-04T09:32:17.140Z,56
2023-03-04T09:33:47.597Z,56
2023-03-04T09:35:18.164Z,56
2023-03-04T09:37:20.504Z,56
2023-03-04T09:38:50.966Z,56
2023-03-04T09:40:53.522Z,55
2023-03-04T09:42:23.967Z,55
2023-03-04T09:43:54.505Z,55
2023-03-04T09:45:24.783Z,54
2023-03-04T09:46:55.282Z,54
2023-03-04T09:48:57.642Z,55
2023-03-04T09:50:28.184Z,55
2023-03-04T09:51:58.598Z,54
2023-03-04T09:54:01.023Z,54
2023-03-04T09:55:31.594Z,54
2023-03-04T09:57:01.948Z,54
2023-03-04T09:58:32.227Z,54
2023-03-04T10:00:02.649Z,53
2023-03-04T10:01:33.403Z,54
2023-03-04T10:03:03.870Z,53
2023-03-04T10:04:34.533Z,53
2023-03-04T10:06:04.833Z,54
2023-03-04T10:08:07.290Z,52
2023-03-04T10:09:37.763Z,52
2023-03-04T10:11:08.165Z,52
2023-03-04T10:12:38.691Z,52
2023-03-04T10:14:09.110Z,52
2023-03-04T10:15:39.596Z,52
2023-03-04T10:17:10.080Z,51
2023-03-04T10:18:40.562Z,52
2023-03-04T10:20:11.091Z,52
2023-03-04T10:21:41.715Z,52
2023-03-04T10:23:12.101Z,52
2023-03-04T10:24:42.565Z,51
2023-03-04T10:26:44.866Z,52
2023-03-04T10:28:47.390Z,51
2023-03-04T10:30:17.904Z,51
2023-03-04T10:31:48.471Z,50
2023-03-04T10:33:18.967Z,50
2023-03-04T10:34:49.249Z,50
2023-03-04T10:36:19.603Z,50
2023-03-04T10:37:50.453Z,50
2023-03-04T10:39:20.971Z,50
2023-03-04T10:40:51.369Z,50
2023-03-04T10:42:21.872Z,50
2023-03-04T10:43:52.260Z,50
2023-03-04T10:45:22.860Z,50
2023-03-04T10:46:53.429Z,50
2023-03-04T10:48:24.062Z,49
2023-03-04T10:49:54.402Z,49
2023-03-04T10:51:24.902Z,50
2023-03-04T10:52:55.308Z,49
2023-03-04T10:54:25.791Z,49
2023-03-04T10:55:56.469Z,49
2023-03-04T10:57:26.865Z,49
2023-03-04T10:58:57.183Z,49
2023-03-04T11:00:27.504Z,49
2023-03-04T11:01:57.907Z,49
2023-03-04T11:03:29.739Z,49
2023-03-04T11:04:58.676Z,49
2023-03-04T11:06:29.073Z,50
2023-03-04T11:08:31.605Z,50
2023-03-04T11:10:02.065Z,50
2023-03-04T11:11:32.420Z,50
2023-03-04T11:13:02.814Z,50
2023-03-04T11:14:33.292Z,50
2023-03-04T11:16:03.692Z,50
2023-03-04T11:17:34.202Z,50
2023-03-04T11:19:04.624Z,50
2023-03-04T11:20:35.118Z,50
2023-03-04T11:22:05.466Z,50
2023-03-04T11:23:35.911Z,50
2023-03-04T11:25:06.300Z,51
2023-03-04T11:26:36.783Z,50
2023-03-04T11:28:39.266Z,51
2023-03-04T11:30:09.711Z,51
2023-03-04T11:31:40.137Z,50
2023-03-04T11:33:10.608Z,50
2023-03-04T11:34:41.008Z,51
2023-03-04T11:36:11.503Z,51
2023-03-04T11:37:42.058Z,51
2023-03-04T11:39:12.560Z,51
2023-03-04T11:40:43.038Z,51
2023-03-04T11:42:45.531Z,51
2023-03-04T11:44:15.871Z,51
2023-03-04T11:45:46.491Z,51
2023-03-04T11:47:16.912Z,51
2023-03-04T11:48:47.297Z,51
2023-03-04T11:50:17.868Z,51
2023-03-04T11:51:48.452Z,51
2023-03-04T11:53:18.884Z,51
2023-03-04T11:54:49.323Z,51
2023-03-04T11:56:19.808Z,51
2023-03-04T11:57:50.287Z,51
2023-03-04T11:59:20.786Z,52
2023-03-04T12:00:51.534Z,52
2023-03-04T12:02:22.629Z,52
2023-03-04T12:03:52.537Z,52
2023-03-04T12:05:22.992Z,52
2023-03-04T12:06:53.738Z,52
2023-03-04T12:08:24.068Z,52
2023-03-04T12:09:54.591Z,52
2023-03-04T12:11:57.073Z,52
2023-03-04T12:13:27.608Z,52
2023-03-04T12:14:57.969Z,52
2023-03-04T12:16:28.447Z,52
2023-03-04T12:17:58.989Z,52
2023-03-04T12:19:29.428Z,52
2023-03-04T12:20:59.864Z,52
2023-03-04T12:23:02.385Z,53
2023-03-04T12:24:32.858Z,53
2023-03-04T12:26:03.438Z,52
2023-03-04T12:27:33.887Z,53
2023-03-04T12:29:04.422Z,52
2023-03-04T12:30:34.895Z,53
2023-03-04T12:32:05.330Z,53
2023-03-04T12:33:35.792Z,52
2023-03-04T12:35:06.106Z,52
2023-03-04T12:37:08.520Z,52
2023-03-04T12:38:39.068Z,52
2023-03-04T12:40:09.396Z,52
2023-03-04T12:42:11.916Z,52
2023-03-04T12:43:42.442Z,52
2023-03-04T12:45:13.034Z,53
2023-03-04T12:46:43.431Z,53
2023-03-04T12:48:13.785Z,53
2023-03-04T12:50:16.295Z,53
2023-03-04T12:51:46.890Z,53
2023-03-04T12:53:17.336Z,53
2023-03-04T12:54:47.912Z,54
2023-03-04T12:56:18.403Z,54
2023-03-04T12:57:48.770Z,54
2023-03-04T12:59:51.281Z,54
2023-03-04T13:01:21.705Z,54
2023-03-04T13:02:52.751Z,54
2023-03-04T13:04:54.740Z,54
2023-03-04T13:06:24.990Z,54
2023-03-04T13:07:55.507Z,55
2023-03-04T13:09:26.005Z,55
2023-03-04T13:10:56.927Z,54
2023-03-04T13:12:26.875Z,54
2023-03-04T13:13:57.307Z,55
2023-03-04T13:15:59.843Z,55
2023-03-04T13:17:30.253Z,55
2023-03-04T13:19:00.658Z,54
2023-03-04T13:21:03.387Z,54
2023-03-04T13:22:34.052Z,54
2023-03-04T13:24:04.402Z,54
2023-03-04T13:25:34.844Z,54
2023-03-04T13:27:37.295Z,54
2023-03-04T13:29:07.735Z,54
2023-03-04T13:30:38.310Z,54
2023-03-04T13:32:08.781Z,54
2023-03-04T13:33:39.260Z,54
2023-03-04T13:35:09.709Z,54
2023-03-04T13:36:40.234Z,54
2023-03-04T13:38:10.738Z,54
2023-03-04T13:39:41.263Z,54
2023-03-04T13:41:11.775Z,54
2023-03-04T13:42:42.304Z,54
2023-03-04T13:44:12.728Z,54
2023-03-04T13:45:43.193Z,54
2023-03-04T13:47:13.707Z,54
2023-03-04T13:48:44.485Z,54
2023-03-04T13:50:14.965Z,54
2023-03-04T13:51:45.405Z,54
2023-03-04T13:53:15.902Z,54
2023-03-04T13:54:46.275Z,54
2023-03-04T13:56:16.788Z,54
2023-03-04T13:57:47.324Z,54
2023-03-04T13:59:17.884Z,54
2023-03-04T14:00:48.505Z,54
2023-03-04T14:02:19.004Z,54
2023-03-04T14:03:49.444Z,54
2023-03-04T14:05:19.851Z,54
2023-03-04T14:06:50.324Z,54
2023-03-04T14:08:20.888Z,54
2023-03-04T14:09:51.289Z,54
2023-03-04T14:11:21.801Z,54
2023-03-04T14:13:24.278Z,54
2023-03-04T14:14:54.824Z,54
2023-03-04T14:16:25.485Z,54
2023-03-04T14:17:55.982Z,54
2023-03-04T14:19:26.515Z,54
2023-03-04T14:21:29.121Z,54
2023-03-04T14:22:59.592Z,54
2023-03-04T14:25:02.075Z,54
2023-03-04T14:26:32.668Z,54
2023-03-04T14:28:03.176Z,54
2023-03-04T14:29:33.786Z,54
2023-03-04T14:31:04.164Z,54
2023-03-04T14:32:34.707Z,54
2023-03-04T14:34:05.251Z,54
2023-03-04T14:35:36.024Z,54
2023-03-04T14:37:06.385Z,54
2023-03-04T14:38:36.839Z,54
2023-03-04T14:40:07.404Z,54
2023-03-04T14:41:38.054Z,54
2023-03-04T14:43:08.295Z,54
2023-03-04T14:44:38.717Z,54
2023-03-04T14:46:09.308Z,54
2023-03-04T14:47:39.723Z,54
2023-03-04T14:49:10.236Z,54
2023-03-04T14:50:40.760Z,54
2023-03-04T14:52:11.367Z,54
2023-03-04T14:53:41.838Z,54
2023-03-04T14:55:12.321Z,54
2023-03-04T14:56:42.893Z,54
2023-03-04T14:58:13.383Z,54
2023-03-04T14:59:43.783Z,54
2023-03-04T15:01:14.334Z,54
2023-03-04T15:02:44.741Z,54
2023-03-04T15:04:15.457Z,54
2023-03-04T15:05:45.795Z,54
2023-03-04T15:07:16.199Z,54
2023-03-04T15:08:46.676Z,54
2023-03-04T15:10:17.130Z,53
2023-03-04T15:11:47.559Z,53
2023-03-04T15:13:18.026Z,54
2023-03-04T15:14:48.522Z,54
2023-03-04T15:16:19.145Z,53
2023-03-04T15:17:49.458Z,54
2023-03-04T15:19:20.825Z,54
2023-03-04T15:21:22.352Z,54
2023-03-04T15:22:52.866Z,54
2023-03-04T15:24:23.232Z,54
2023-03-04T15:26:25.928Z,54
2023-03-04T15:27:56.392Z,54
2023-03-04T15:29:26.907Z,54
2023-03-04T15:31:29.333Z,55
2023-03-04T15:32:59.817Z,54
2023-03-04T15:34:30.391Z,54
2023-03-04T15:36:00.848Z,55
2023-03-04T15:37:31.379Z,54
2023-03-04T15:39:01.820Z,54
2023-03-04T15:40:32.294Z,54
2023-03-04T15:42:02.810Z,54
2023-03-04T15:44:05.338Z,54
2023-03-04T15:45:36.206Z,54
2023-03-04T15:47:06.884Z,54
2023-03-04T15:48:37.445Z,54
2023-03-04T15:50:07.866Z,54
2023-03-04T15:51:38.398Z,54
2023-03-04T15:53:09.088Z,54
2023-03-04T15:54:39.609Z,54
2023-03-04T15:56:42.081Z,54
2023-03-04T15:58:12.541Z,54
2023-03-04T15:59:43.010Z,54
2023-03-04T16:01:13.467Z,54
2023-03-04T16:03:15.990Z,54
2023-03-04T16:04:46.512Z,54
2023-03-04T16:06:16.988Z,54
2023-03-04T16:07:47.375Z,54
2023-03-04T16:09:17.875Z,54
2023-03-04T16:10:48.283Z,54
2023-03-04T16:12:18.729Z,54
2023-03-04T16:13:49.206Z,55
2023-03-04T16:15:19.753Z,55
2023-03-04T16:16:50.327Z,55
2023-03-04T16:18:52.738Z,55
2023-03-04T16:20:23.194Z,55
2023-03-04T16:21:53.611Z,54
2023-03-04T16:23:24.037Z,54
2023-03-04T16:24:54.567Z,54
2023-03-04T16:26:24.974Z,54
2023-03-04T16:28:27.475Z,54
2023-03-04T16:29:58.062Z,54
2023-03-04T16:32:00.620Z,54
2023-03-04T16:33:31.015Z,54
2023-03-04T16:35:01.572Z,54
2023-03-04T16:36:32.202Z,54
2023-03-04T16:38:02.536Z,54
2023-03-04T16:39:33.083Z,54
2023-03-04T16:41:03.598Z,54
2023-03-04T16:42:33.953Z,54
2023-03-04T16:45:08.482Z,54
2023-03-04T16:46:39.000Z,54
2023-03-04T16:48:09.468Z,54
2023-03-04T16:49:39.968Z,54
2023-03-04T16:51:10.490Z,54
2023-03-04T16:52:40.930Z,54
2023-03-04T16:54:11.560Z,54
2023-03-04T16:56:14.057Z,54
2023-03-04T16:57:44.463Z,54
2023-03-04T16:59:15.024Z,54
2023-03-04T17:01:17.799Z,54
2023-03-04T17:02:48.115Z,54
2023-03-04T17:04:50.642Z,54
2023-03-04T17:06:21.148Z,54
2023-03-04T17:07:51.624Z,54
2023-03-04T17:09:22.059Z,54
2023-03-04T17:10:52.634Z,54
2023-03-04T17:12:23.054Z,53
2023-03-04T17:13:53.514Z,52
2023-03-04T17:15:23.965Z,52
2023-03-04T17:16:54.388Z,50
2023-03-04T17:18:24.814Z,50
2023-03-04T17:19:55.377Z,50
2023-03-04T17:21:25.943Z,49
2023-03-04T17:22:56.384Z,49
2023-03-04T17:24:26.812Z,49
2023-03-04T17:25:57.379Z,48
2023-03-04T17:27:27.889Z,48
2023-03-04T17:28:58.353Z,47
2023-03-04T17:30:28.881Z,47
2023-03-04T17:31:59.371Z,47
2023-03-04T17:34:01.801Z,47
2023-03-04T17:35:32.326Z,47
2023-03-04T17:37:02.721Z,48
2023-03-04T17:39:05.273Z,48
2023-03-04T17:40:35.685Z,48
2023-03-04T17:42:06.176Z,48
2023-03-04T17:43:36.653Z,49
2023-03-04T17:45:39.204Z,49
2023-03-04T17:47:09.665Z,49
2023-03-04T17:48:40.177Z,49
2023-03-04T17:50:10.743Z,49
2023-03-04T17:52:13.212Z,50
2023-03-04T17:53:43.754Z,50
2023-03-04T17:55:14.153Z,50
2023-03-04T17:56:44.743Z,50
2023-03-04T17:58:47.221Z,50
2023-03-04T18:00:49.721Z,51
2023-03-04T18:02:20.099Z,50
2023-03-04T18:04:22.604Z,52
2023-03-04T18:05:53.154Z,51
2023-03-04T18:07:28.534Z,51
2023-03-04T18:08:59.039Z,52
2023-03-04T18:10:29.465Z,51
2023-03-04T18:11:59.935Z,52
2023-03-04T18:13:30.422Z,53
2023-03-04T18:15:00.840Z,54
2023-03-04T18:17:03.455Z,55
2023-03-04T18:18:33.836Z,55
2023-03-04T18:20:04.228Z,57
2023-03-04T18:22:06.765Z,57
2023-03-04T18:23:37.237Z,57
2023-03-04T18:25:07.635Z,57
2023-03-04T18:27:10.130Z,58
2023-03-04T18:28:40.641Z,58
2023-03-04T18:30:11.347Z,58
2023-03-04T18:31:41.555Z,58
2023-03-04T18:33:12.051Z,59
2023-03-04T18:35:14.464Z,61
2023-03-04T18:37:16.982Z,61
2023-03-04T18:38:47.298Z,62
2023-03-04T18:40:17.784Z,62
2023-03-04T18:41:48.267Z,62
2023-03-04T18:43:18.740Z,63
2023-03-04T18:44:49.281Z,62
2023-03-04T18:46:19.788Z,61
2023-03-04T18:47:50.713Z,61
2023-03-04T18:49:21.282Z,61
2023-03-04T18:50:53.639Z,60
2023-03-04T18:52:22.161Z,60
2023-03-04T18:54:24.748Z,58
2023-03-04T18:55:55.301Z,59
2023-03-04T18:57:25.741Z,59
2023-03-04T18:58:56.261Z,59
2023-03-04T19:00:26.546Z,59
2023-03-04T19:01:57.028Z,60
2023-03-04T19:03:27.477Z,60
2023-03-04T19:04:58.054Z,59
2023-03-04T19:06:28.528Z,59
2023-03-04T19:07:59.092Z,60
2023-03-04T19:09:29.418Z,59
2023-03-04T19:11:31.986Z,59
2023-03-04T19:13:02.456Z,59
2023-03-04T19:14:32.923Z,60
2023-03-04T19:16:03.425Z,59
2023-03-04T19:17:33.957Z,60
2023-03-04T19:19:04.546Z,60
2023-03-04T19:20:35.366Z,60
2023-03-04T19:22:06.022Z,60
2023-03-04T19:23:36.546Z,59
2023-03-04T19:25:07.084Z,58
2023-03-04T19:26:37.354Z,57
2023-03-04T19:28:07.812Z,56
2023-03-04T19:29:38.333Z,56
2023-03-04T19:31:08.951Z,56
2023-03-04T19:33:11.463Z,57
2023-03-04T19:34:41.965Z,57
2023-03-04T19:36:12.485Z,57
2023-03-04T19:37:42.932Z,58
2023-03-04T19:39:13.423Z,58
2023-03-04T19:40:43.916Z,58
2023-03-04T19:42:46.427Z,56
2023-03-04T19:44:16.877Z,56
2023-03-04T19:45:47.586Z,56
2023-03-04T19:47:17.856Z,55
2023-03-04T19:48:48.466Z,55
2023-03-04T19:50:18.910Z,56
2023-03-04T19:51:49.376Z,56
2023-03-04T19:53:19.860Z,57
2023-03-04T19:54:50.328Z,57
2023-03-04T19:56:20.761Z,58
2023-03-04T19:58:23.240Z,57
2023-03-04T19:59:53.683Z,57
2023-03-04T20:01:24.190Z,57
2023-03-04T20:02:54.678Z,57
2023-03-04T20:04:25.243Z,57
2023-03-04T20:05:55.661Z,56
2023-03-04T20:07:26.188Z,56
2023-03-04T20:08:56.744Z,54
2023-03-04T20:10:27.360Z,54
2023-03-04T20:11:59.408Z,54
2023-03-04T20:14:00.185Z,54
2023-03-04T20:16:02.688Z,53
2023-03-04T20:17:33.192Z,53
2023-03-04T20:19:03.725Z,54
2023-03-04T20:21:06.202Z,54
2023-03-04T20:23:08.951Z,54
2023-03-04T20:24:39.439Z,54
2023-03-04T20:26:09.860Z,54
2023-03-04T20:27:40.572Z,54
2023-03-04T20:29:11.024Z,55
2023-03-04T20:30:41.484Z,55
2023-03-04T20:32:11.918Z,55
2023-03-04T20:33:42.349Z,55
2023-03-04T20:35:12.721Z,55
2023-03-04T20:36:43.293Z,55
2023-03-04T20:38:45.792Z,55
2023-03-04T20:40:16.277Z,55
2023-03-04T20:41:46.801Z,55
2023-03-04T20:43:17.228Z,56
2023-03-04T20:44:47.819Z,55
2023-03-04T20:46:18.308Z,54
2023-03-04T20:47:48.754Z,54
2023-03-04T20:49:19.269Z,54
2023-03-04T20:50:49.784Z,54
2023-03-04T20:52:52.305Z,53
2023-03-04T20:54:22.709Z,54
2023-03-04T20:55:53.256Z,54
2023-03-04T20:57:23.742Z,53
2023-03-04T20:58:54.166Z,54
2023-03-04T21:00:56.752Z,55
2023-03-04T21:02:27.223Z,56
2023-03-04T21:04:31.906Z,56
2023-03-04T21:06:00.436Z,55
2023-03-04T21:07:30.948Z,55
2023-03-04T21:09:01.476Z,56
2023-03-04T21:10:31.936Z,56
2023-03-04T21:12:02.305Z,57
2023-03-04T21:14:04.908Z,57
2023-03-04T21:15:35.394Z,58
2023-03-04T21:17:05.878Z,59
2023-03-04T21:18:36.258Z,59
2023-03-04T21:20:06.709Z,60
2023-03-04T21:21:37.123Z,61
2023-03-04T21:23:39.883Z,59
2023-03-04T21:25:10.384Z,59
2023-03-04T21:26:40.862Z,60
2023-03-04T21:28:11.237Z,59
2023-03-04T21:29:41.686Z,60
2023-03-04T21:31:12.274Z,59
2023-03-04T21:32:42.761Z,59
2023-03-04T21:34:13.534Z,57
2023-03-04T21:35:44.120Z,57
2023-03-04T21:37:14.539Z,57
2023-03-04T21:38:44.988Z,55
2023-03-04T21:40:47.604Z,54
2023-03-04T21:42:18.003Z,54
2023-03-04T21:43:48.424Z,52
2023-03-04T21:45:19.030Z,55
2023-03-04T21:46:49.570Z,54
2023-03-04T21:48:19.931Z,55
2023-03-04T21:49:50.397Z,54
2023-03-04T21:51:52.960Z,53
2023-03-04T21:53:23.424Z,55
2023-03-04T21:54:53.900Z,52
2023-03-04T21:56:24.387Z,54
2023-03-04T21:57:54.831Z,56
2023-03-04T21:59:25.193Z,54
2023-03-04T22:00:55.689Z,53
2023-03-04T22:02:26.262Z,56
2023-03-04T22:03:56.689Z,56
2023-03-04T22:05:27.144Z,57
2023-03-04T22:06:57.758Z,56
2023-03-04T22:08:28.291Z,57
2023-03-04T22:09:58.797Z,57
2023-03-04T22:11:29.293Z,56
2023-03-04T22:12:59.794Z,56
2023-03-04T22:15:02.532Z,57
2023-03-04T22:17:05.049Z,57
2023-03-04T22:19:07.425Z,57
2023-03-04T22:20:38.067Z,56
2023-03-04T22:22:08.460Z,57
2023-03-04T22:24:10.924Z,56
2023-03-04T22:26:13.451Z,56
2023-03-04T22:27:43.972Z,55
2023-03-04T22:30:50.207Z,56
2023-03-04T22:32:52.693Z,56
2023-03-04T22:34:23.331Z,56
2023-03-04T22:35:53.809Z,56
2023-03-04T22:37:24.269Z,56
2023-03-04T22:38:54.706Z,56
2023-03-04T22:40:25.144Z,56
2023-03-04T22:41:55.567Z,56
2023-03-04T22:43:26.035Z,56
2023-03-04T22:45:28.718Z,51